createdAt,value
2019-04-23T01:45:26.041Z,8.60
2019-04-23T01:55:26.329Z,8.10
2019-04-23T03:25:25.305Z,11.40
2019-04-23T03:50:35.819Z,11.80
2019-04-23T03:55:39.880Z,11.40
2019-04-23T04:05:42.158Z,12.30
2019-04-23T04:10:41.311Z,12.10
2019-04-23T04:25:26.925Z,13.00
2019-04-23T04:30:40.151Z,12.40
2019-04-23T04:35:27.225Z,13.70
2019-04-23T04:45:47.313Z,13.60
2019-04-23T04:50:24.246Z,13.50
2019-04-23T04:55:40.343Z,13.90
2019-04-23T05:00:45.635Z,13.40
2019-04-23T05:15:28.519Z,14.10
2019-04-23T05:25:28.070Z,13.80
2019-04-23T05:30:32.944Z,14.20
2019-04-23T05:40:42.865Z,14.30
2019-04-23T05:50:35.774Z,14.10
2019-04-23T06:00:32.269Z,14.60
2019-04-23T06:05:31.296Z,15.20
2019-04-23T06:10:29.017Z,15.10
2019-04-23T06:15:20.541Z,14.10
2019-04-23T06:30:35.233Z,14.70
2019-04-23T06:35:29.055Z,14.50
2019-04-23T06:40:26.649Z,15.40
2019-04-23T06:45:30.757Z,16.30
2019-04-23T06:50:27.137Z,15.90
2019-04-23T06:55:31.882Z,16.60
2019-04-23T07:05:25.255Z,15.80
2019-04-23T07:10:21.921Z,16.20
2019-04-23T07:15:30.837Z,16.60
2019-04-23T07:20:27.931Z,16.40
2019-04-23T07:25:22.386Z,16.70
2019-04-23T07:30:30.832Z,17.30
2019-04-23T07:35:21.194Z,16.70
2019-04-23T07:40:27.480Z,17.00
2019-04-23T07:45:30.993Z,17.20
2019-04-23T07:50:31.003Z,16.90
2019-04-23T07:55:37.656Z,17.60
2019-04-23T08:00:35.306Z,17.20
2019-04-23T08:05:26.792Z,17.20
2019-04-23T08:10:29.774Z,17.70
2019-04-23T08:15:33.530Z,18.60
2019-04-23T08:20:30.743Z,18.80
2019-04-23T08:25:17.769Z,18.30
2019-04-23T08:30:28.897Z,18.30
2019-04-23T08:35:21.288Z,18.20
2019-04-23T08:40:29.697Z,19.20
2019-04-23T08:45:26.725Z,19.00
2019-04-23T08:55:34.031Z,19.80
2019-04-23T09:00:33.795Z,18.60
2019-04-23T09:05:31.996Z,19.30
2019-04-23T09:10:19.613Z,19.50
2019-04-23T09:20:21.831Z,20.60
2019-04-23T09:25:34.694Z,20.10
2019-04-23T09:30:28.220Z,20.10
2019-04-23T09:35:24.057Z,20.80
2019-04-23T09:40:27.453Z,20.70
2019-04-23T09:50:29.866Z,21.70
2019-04-23T12:05:27.999Z,0.00
2019-04-23T12:10:44.139Z,26.60
2019-04-23T12:15:32.966Z,26.80
2019-04-23T12:20:33.583Z,26.30
2019-04-23T12:25:25.063Z,26.30
2019-04-23T12:30:33.938Z,26.40
2019-04-23T12:35:17.739Z,25.90
2019-04-23T12:40:35.941Z,25.80
2019-04-23T12:45:33.978Z,24.70
2019-04-23T12:55:39.095Z,25.70
2019-04-23T13:15:29.414Z,25.50
2019-04-23T13:20:23.666Z,27.50
2019-04-23T13:40:39.290Z,26.10
2019-04-23T13:50:43.284Z,26.20
2019-04-23T13:55:24.469Z,25.60
2019-04-23T14:00:44.928Z,26.40
2019-04-23T14:05:22.072Z,26.30
2019-04-23T14:10:34.185Z,26.10
2019-04-23T14:20:28.041Z,27.40
2019-04-23T14:25:15.944Z,27.00
2019-04-23T14:30:39.024Z,28.00
2019-04-23T14:40:34.339Z,27.90
2019-04-23T14:45:31.286Z,30.90
2019-04-23T14:50:29.294Z,30.60
2019-04-23T14:55:48.998Z,31.00
2019-04-23T15:00:35.739Z,31.00
2019-04-23T15:05:36.139Z,31.00
2019-04-23T15:10:34.585Z,30.60
2019-04-23T15:15:25.183Z,30.10
2019-04-23T15:20:29.793Z,30.90
2019-04-23T15:25:36.950Z,31.70
2019-04-23T15:30:20.817Z,31.00
2019-04-23T15:40:25.169Z,29.70
2019-04-23T15:45:28.242Z,36.50
2019-04-23T15:50:22.546Z,35.00
2019-04-23T15:55:20.851Z,35.50
2019-04-23T16:00:17.830Z,36.20
2019-04-23T16:05:01.796Z,35.10
2019-04-23T16:10:28.810Z,35.10
2019-04-23T16:15:26.528Z,35.10
2019-04-23T16:20:40.493Z,35.80
2019-04-23T16:25:23.132Z,36.00
2019-04-23T16:30:24.601Z,36.40
2019-04-23T16:35:32.932Z,36.90
2019-04-23T16:40:33.161Z,38.10
2019-04-23T16:45:25.603Z,39.40
2019-04-23T16:50:29.164Z,37.60
2019-04-23T16:55:29.356Z,38.10
2019-04-23T17:00:33.583Z,37.70
2019-04-23T17:05:35.989Z,36.80
2019-04-23T17:15:34.442Z,36.80
2019-04-23T17:20:30.721Z,37.00
2019-04-23T17:25:26.539Z,36.00
2019-04-23T17:35:27.418Z,35.30
2019-04-23T17:40:23.051Z,34.30
2019-04-23T17:45:32.073Z,33.50
2019-04-23T17:50:26.880Z,33.10
2019-04-23T18:00:34.095Z,31.30
2019-04-23T18:05:24.818Z,30.60
2019-04-23T18:10:38.655Z,29.00
2019-04-23T18:15:17.545Z,29.90
2019-04-23T18:20:35.164Z,31.30
2019-04-23T18:25:31.208Z,31.00
2019-04-23T18:30:28.849Z,31.50
2019-04-23T18:40:28.738Z,32.90
2019-04-23T18:45:41.642Z,35.00
2019-04-23T18:50:43.267Z,35.00
2019-04-23T18:55:43.674Z,36.20
2019-04-23T19:00:33.526Z,36.70
2019-04-23T19:05:34.026Z,36.40
2019-04-23T19:10:30.632Z,38.40
2019-04-23T19:15:37.121Z,38.30
2019-04-23T19:20:45.177Z,39.90
2019-04-23T19:25:25.949Z,41.60
2019-04-23T19:30:41.455Z,41.30
2019-04-23T19:35:55.273Z,43.30
2019-04-23T19:40:37.550Z,43.50
2019-04-23T19:45:24.621Z,44.20
2019-04-23T20:05:34.130Z,48.20
2019-04-23T20:10:37.442Z,47.40
2019-04-23T20:15:40.937Z,49.50
2019-04-23T20:20:39.841Z,49.80
2019-04-23T20:26:05.612Z,51.00
2019-04-23T20:30:56.898Z,49.40
2019-04-23T20:35:16.616Z,48.70
2019-04-23T20:40:39.707Z,48.80
2019-04-23T20:45:28.872Z,50.70
2019-04-23T20:50:19.154Z,51.80
2019-04-23T20:55:39.188Z,51.50
2019-04-23T21:00:28.649Z,51.30
2019-04-23T21:05:22.708Z,52.50
2019-04-23T21:10:34.533Z,52.00
2019-04-23T21:15:29.097Z,51.30
2019-04-23T21:20:29.462Z,49.70
2019-04-23T21:25:34.674Z,49.90
2019-04-23T21:30:39.167Z,50.60
2019-04-23T21:35:42.871Z,49.90
2019-04-23T21:45:28.705Z,47.80
2019-04-23T21:50:37.422Z,49.60
2019-04-23T21:55:40.371Z,50.30
2019-04-23T22:05:32.570Z,49.20
2019-04-23T22:10:31.853Z,49.40
2019-04-23T22:15:36.975Z,48.10
2019-04-23T22:20:33.531Z,49.40
2019-04-23T22:25:31.678Z,46.70
2019-04-23T22:30:30.299Z,46.90
2019-04-23T22:40:25.265Z,46.40
2019-04-23T22:45:27.511Z,47.10
2019-04-23T22:50:27.903Z,46.60
2019-04-23T22:55:23.153Z,48.50
2019-04-23T23:00:24.396Z,47.50
2019-04-23T23:05:42.840Z,48.50
2019-04-23T23:10:27.732Z,47.60
2019-04-23T23:15:30.292Z,47.30
2019-04-23T23:20:32.229Z,49.30
2019-04-23T23:30:37.729Z,45.60
2019-04-23T23:35:31.222Z,47.30
2019-04-23T23:40:47.611Z,46.20
2019-04-23T23:45:36.796Z,48.00
2019-04-23T23:50:36.505Z,46.60
